Alexandria, MN

2:49 PM CDT on August 23, 2014 (GMT -0500)
Chandler | Change Station
CLOSE
Current Station
Airport
Location: Alexandria,
Elevation: 1424 ft
Nearby Weather Stations

Elev 1424 ft 45.87 °N, 95.39 °W | Updated 34 minutes ago

Light Rain
Light Rain
70 °F
Feels Like 70 °F
N
14
Wind Variable Wind from East

Today
High -- | Low -- °F
--% Chance of Precip.
Yesterday
High -- | Low -- °F
Precip. -- in
6:31 AM 8:16 PM
Waning Crescent, 3% visible
Pressure 29.98 in
Visibility 10.0 miles
Clouds Overcast 1000 ft
Dew Point 66 °F
Humidity 87%
Rainfall 0.00 in
Snow Depth Not available.
UV 3 out of 12
Pollen 6.30 out of 12
Air Quality Not available.
Flu Activity Not available.
SPECI KAXN 231915Z AUTO 09012KT 10SM -RA OVC010 21/19 A2998 RMK AO2 RAB13 CIG 007V013 P0000 T02110189

More Conditions Fewer Conditions

Pressure 29.98 in
Visibility 10.0 miles
Clouds Overcast 1000 ft
Dew Point 66 °F
Humidity 87%
Rainfall 0.00 in
Snow Depth Not available.
UV 3 out of 12
Pollen 6.30 out of 12
Air Quality Not available.
Flu Activity Not available.
SPECI KAXN 231915Z AUTO 09012KT 10SM -RA OVC010 21/19 A2998 RMK AO2 RAB13 CIG 007V013 P0000 T02110189

More Conditions Fewer Conditions

10-Day Weather Forecast

Almanac

Astronomy

Aug. 23, 2014 Rise Set
Actual Time 6:31 AM CDT 8:16 PM CDT
Civil Twilight 5:59 AM CDT 8:47 PM CDT
Nautical Twilight 5:20 AM CDT 9:26 PM CDT
Astronomical Twilight 4:38 AM CDT 10:07 PM CDT
Moon 4:46 AM CDT 7:01 PM CDT
Length of Visible Light 14h 48m
Length of Day
13h 44m
Tomorrow will be 3m 1s shorter.
Waning Crescent, 3% of the Moon is Illuminated
Today
Waning Crescent
Aug 25
New
Sep 2
First Quarter
Sep 8
Full
Sep 15
Last Quarter

Today's Extremes

State Highs State Lows

Community

WunderPhotos

Upload Photos

1,746,583 photos uploaded!

WunderBlogs® & News

Nearby

Snow Depth

Station Depth Elevation
No new snow has been reported.

Earthquake Activity

City Distance Mag. Time & Date
No recent earthquake activity has been reported nearby.
Minimum magnitude displayed is 2.5.

Coastal Water Temperatures

Place Temperature
No Stations Reporting

Nearby Weather Stations